This is the latest recevied weather packets stored in our database for station/object OE6PLD-13. If no packets are shown the sender has not sent any weather packets the latest 10 day(s).
| Time | Temp. | Humidity | Pressure | Rain* | Wind** | Luminosity | Snow |
|---|---|---|---|---|---|---|---|
| 1778153484 | 21.67° C | 54% | 1016.1 hPa | 0.76 mm | - | 559 W/m² | - |
| 1778153301 | 21.67° C | 54% | 1016.3 hPa | 0.76 mm | - | 566 W/m² | - |
| 1778153117 | 21.67° C | 56% | 1016.1 hPa | 0.76 mm | - | 587 W/m² | - |
| 1778152934 | 21.67° C | 56% | 1016.3 hPa | 0.76 mm | - | 672 W/m² | - |
| 1778152751 | 21.11° C | 54% | 1016.3 hPa | 0.76 mm | - | 684 W/m² | - |
| 1778152567 | 21.11° C | 54% | 1016.4 hPa | 0.76 mm | - | 662 W/m² | - |
| 1778152384 | 22.22° C | 52% | 1016.2 hPa | 0.76 mm | - | 520 W/m² | - |
| 1778152200 | 22.22° C | 53% | 1016.3 hPa | 0.76 mm | - | 451 W/m² | - |
| 1778152017 | 22.78° C | 52% | 1016.6 hPa | 0.76 mm | - | 491 W/m² | - |
| 1778151834 | 21.67° C | 54% | 1016.5 hPa | 0.76 mm | - | 639 W/m² | - |
| 1778151650 | 21.11° C | 57% | 1016.4 hPa | 0.76 mm | - | 454 W/m² | - |
| 1778151467 | 20.56° C | 57% | 1016.4 hPa | 0.76 mm | - | 427 W/m² | - |
| 1778151284 | 20.56° C | 57% | 1016.4 hPa | 0.76 mm | - | 343 W/m² | - |
| 1778151100 | 21.11° C | 56% | 1016.8 hPa | 0.76 mm | - | 307 W/m² | - |
| 1778150917 | 21.11° C | 55% | 1016.5 hPa | 0.76 mm | - | 307 W/m² | - |
| 1778150733 | 21.11° C | 55% | 1016.6 hPa | 0.76 mm | - | 282 W/m² | - |
| 1778150550 | 20.56° C | 58% | 1016.8 hPa | 0.76 mm | - | 327 W/m² | - |
| 1778150367 | 20.56° C | 57% | 1016.6 hPa | 0.76 mm | - | 408 W/m² | - |
| 1778150183 | 21.11° C | 57% | 1016.6 hPa | 0.76 mm | - | 292 W/m² | - |
| 1778150000 | 21.11° C | 57% | 1016.6 hPa | 0.76 mm | - | 403 W/m² | - |
| 1778149817 | 21.67° C | 56% | 1016.6 hPa | 0.76 mm | - | 401 W/m² | - |
| 1778149633 | 21.11° C | 57% | 1016.6 hPa | 0.76 mm | - | 429 W/m² | - |
| 1778149450 | 20.56° C | 59% | 1016.7 hPa | 0.76 mm | - | 600 W/m² | - |
| 1778149267 | 20.56° C | 59% | 1016.9 hPa | 0.76 mm | - | 326 W/m² | - |
| 1778149083 | 20.56° C | 59% | 1016.9 hPa | 0.76 mm | - | 479 W/m² | - |
* Rain latest hour (hover to see other rain measurements)
** Current wind speed in m/s (hover to see current wind gust speed)